ZBAA/PEK METAR and TAF weather

Enter ICAO airport designator
Station Type Date Time Source
ZBAA METAR 2022/01/29 10:00 UTC NOAA

ZBAA 291000Z 13001MPS CAVOK M02/M15 Q1024 NOSIG


Station Type Date Time Source
ZBAA Decoded METAR 2022/01/29 10:00 UTC NOAA

Beijing, China (ZBAA) 39-56N 116-17E 55M
Jan 29, 2022 - 05:00 AM EST / 2022.01.29 1000 UTC
Wind: from the SE (130 degrees) at 2 MPH (2 KT):0
Visibility: greater than 7 mile(s):0
Temperature: 28 F (-2 C)
Dew Point: 5 F (-15 C)
Relative Humidity: 36%
Pressure (altimeter): 30.24 in. Hg (1024 hPa)
ob: ZBAA 291000Z 13001MPS CAVOK M02/M15 Q1024 NOSIG
cycle: 10

Station Type Date Time Source
ZBAA TAF 2022/01/29 12:04 UTC NOAA

TAF ZBAA 290901Z 2912/3012 15004MPS CAVOK TX03/3007Z TNM09/2921Z

Example: see airport list